Terminal Aerodrome Forecast
Issued by NWS Rapid City, SD

Home | Current Version | Previous Version | Graphics & Text | Print | Product List | Glossary On
Versions: 1 2 3 4 5 6 7 8 9 10 11 12 13 14 15
000
FTUS43 KUNR 072200 AAA
TAFRAP
TAF AMD
KRAP 072203Z 0722/0818 34018G28KT P6SM SCT050
     FM080200 31009KT P6SM SKC
     FM081400 34016KT P6SM SKC=

USA.gov is the U.S. government's official web portal to all federal, state and local government web resources and services.